createdAt,value
2022-11-23T00:00:37.272Z,0.80
2022-11-23T00:03:04.587Z,0.60
2022-11-23T00:05:31.690Z,0.70
2022-11-23T00:07:58.497Z,1.40
2022-11-23T00:10:25.270Z,1.00
2022-11-23T00:12:52.132Z,0.70
2022-11-23T00:15:18.885Z,0.88
2022-11-23T00:17:48.333Z,0.70
2022-11-23T00:20:15.193Z,0.70
2022-11-23T00:22:41.981Z,0.60
2022-11-23T00:25:09.110Z,0.70
2022-11-23T00:27:35.946Z,0.70
2022-11-23T00:30:02.732Z,0.80
2022-11-23T00:32:30.225Z,0.60
2022-11-23T00:34:57.008Z,0.80
2022-11-23T00:37:23.736Z,0.80
2022-11-23T00:39:50.496Z,0.60
2022-11-23T00:42:17.211Z,0.68
2022-11-23T00:44:44.035Z,1.10
2022-11-23T00:47:10.825Z,1.08
2022-11-23T00:49:37.568Z,1.23
2022-11-23T00:52:04.482Z,1.30
2022-11-23T00:54:31.276Z,1.00
2022-11-23T00:56:58.014Z,1.00
2022-11-23T00:59:24.811Z,1.02
2022-11-23T01:01:51.736Z,1.38
2022-11-23T01:04:18.549Z,1.33
2022-11-23T01:06:45.354Z,1.23
2022-11-23T01:09:17.877Z,0.90
2022-11-23T01:11:45.211Z,1.48
2022-11-23T01:14:12.331Z,1.38
2022-11-23T01:16:41.032Z,1.10
2022-11-23T01:19:11.708Z,1.25
2022-11-23T01:21:38.925Z,1.13
2022-11-23T01:24:11.892Z,1.10
2022-11-23T01:26:39.508Z,1.30
2022-11-23T01:29:06.622Z,1.25
2022-11-23T01:31:33.794Z,1.55
2022-11-23T01:34:02.496Z,1.48
2022-11-23T01:36:32.685Z,1.02
2022-11-23T01:39:01.932Z,1.10
2022-11-23T01:41:37.852Z,0.90
2022-11-23T01:44:28.330Z,0.90
2022-11-23T01:46:57.188Z,1.27
2022-11-23T01:49:25.030Z,1.15
2022-11-23T01:51:57.657Z,0.85
2022-11-23T01:54:29.972Z,0.93
2022-11-23T01:57:01.823Z,1.25
2022-11-23T01:59:31.767Z,1.17
2022-11-23T02:01:58.731Z,1.55
2022-11-23T02:04:30.066Z,1.30
2022-11-23T02:06:57.696Z,1.10
2022-11-23T02:09:24.694Z,0.98
2022-11-23T02:11:52.254Z,1.45
2022-11-23T02:14:23.396Z,1.50
2022-11-23T02:16:50.531Z,1.08
2022-11-23T02:19:31.888Z,0.90
2022-11-23T02:21:58.968Z,0.93
2022-11-23T02:24:37.273Z,1.40
2022-11-23T02:27:06.936Z,0.98
2022-11-23T02:29:34.862Z,1.30
2022-11-23T02:32:01.800Z,1.40
2022-11-23T02:34:28.573Z,1.17
2022-11-23T02:36:57.603Z,1.30
2022-11-23T02:39:28.367Z,1.15
2022-11-23T02:41:56.254Z,1.20
2022-11-23T02:44:32.333Z,1.50
2022-11-23T02:46:59.299Z,1.10
2022-11-23T02:49:26.464Z,2.15
2022-11-23T02:51:53.533Z,1.00
2022-11-23T02:54:20.556Z,1.17
2022-11-23T02:56:47.334Z,0.98
2022-11-23T02:59:14.151Z,1.00
2022-11-23T03:01:41.061Z,2.00
2022-11-23T03:04:08.198Z,1.17
2022-11-23T03:06:35.082Z,1.15
2022-11-23T03:09:01.858Z,1.10
2022-11-23T03:11:28.612Z,1.05
2022-11-23T03:13:55.466Z,1.08
2022-11-23T03:16:24.851Z,0.93
2022-11-23T03:18:51.984Z,1.00
2022-11-23T03:21:19.112Z,1.33
2022-11-23T03:23:46.056Z,1.23
2022-11-23T03:26:13.439Z,1.00
2022-11-23T03:28:40.358Z,1.00
2022-11-23T03:31:07.207Z,1.08
2022-11-23T03:33:34.043Z,1.33
2022-11-23T03:36:01.776Z,0.90
2022-11-23T03:38:28.546Z,1.08
2022-11-23T03:40:55.376Z,1.42
2022-11-23T03:43:22.263Z,1.17
2022-11-23T03:45:49.131Z,1.10
2022-11-23T03:48:16.221Z,1.48
2022-11-23T03:50:44.219Z,1.00
2022-11-23T03:53:11.407Z,1.00
2022-11-23T03:55:38.247Z,1.60
2022-11-23T03:58:05.248Z,1.10
2022-11-23T04:00:32.577Z,0.88
2022-11-23T04:02:59.300Z,1.00
2022-11-23T04:05:27.865Z,1.45
2022-11-23T04:07:54.648Z,1.00
2022-11-23T04:10:23.331Z,0.70
2022-11-23T04:12:53.659Z,1.00
2022-11-23T04:15:20.628Z,1.15
2022-11-23T04:17:48.229Z,1.08
2022-11-23T04:20:15.427Z,0.90
2022-11-23T04:22:42.219Z,0.90
2022-11-23T04:25:10.187Z,0.98
2022-11-23T04:27:37.043Z,0.90
2022-11-23T04:30:04.928Z,0.85
2022-11-23T04:32:31.739Z,0.70
2022-11-23T04:34:58.482Z,2.90
2022-11-23T04:37:25.233Z,0.95
2022-11-23T04:39:52.053Z,1.00
2022-11-23T04:42:18.900Z,1.02
2022-11-23T04:44:46.457Z,0.90
2022-11-23T04:47:13.512Z,1.00
2022-11-23T04:49:40.252Z,1.13
2022-11-23T04:52:07.653Z,0.80
2022-11-23T04:54:34.450Z,1.10
2022-11-23T04:57:02.310Z,1.52
2022-11-23T04:59:29.240Z,1.10
2022-11-23T05:01:56.163Z,1.67
2022-11-23T05:04:22.936Z,0.90
2022-11-23T05:06:49.710Z,0.60
2022-11-23T05:09:16.631Z,0.93
2022-11-23T05:11:43.469Z,1.25
2022-11-23T05:14:10.327Z,1.00
2022-11-23T05:16:37.144Z,1.00
2022-11-23T05:19:03.896Z,0.90
2022-11-23T05:21:30.660Z,1.42
2022-11-23T05:23:57.365Z,1.10
2022-11-23T05:26:24.131Z,1.30
2022-11-23T05:28:51.003Z,1.30
2022-11-23T05:31:17.780Z,0.88
2022-11-23T05:33:44.551Z,1.10
2022-11-23T05:36:14.082Z,0.70
2022-11-23T05:38:41.853Z,1.13
2022-11-23T05:41:08.730Z,0.93
2022-11-23T05:43:35.493Z,0.80
2022-11-23T05:46:03.276Z,0.80
2022-11-23T05:48:30.121Z,0.57
2022-11-23T05:51:02.206Z,0.52
2022-11-23T05:53:31.872Z,0.55
2022-11-23T05:56:02.564Z,0.98
2022-11-23T05:58:29.773Z,0.40
2022-11-23T06:01:00.658Z,0.20
2022-11-23T06:03:27.596Z,0.40
2022-11-23T06:05:54.556Z,0.40
2022-11-23T06:08:21.371Z,0.30
2022-11-23T06:10:48.132Z,0.30
2022-11-23T06:13:15.089Z,0.30
2022-11-23T06:15:41.890Z,0.32
2022-11-23T06:18:09.666Z,0.30
2022-11-23T06:20:36.557Z,0.20
2022-11-23T06:23:03.353Z,0.22
2022-11-23T06:25:30.113Z,0.30
2022-11-23T06:27:58.993Z,0.30
2022-11-23T06:30:27.470Z,0.30
2022-11-23T06:32:54.355Z,0.22
2022-11-23T06:35:21.149Z,0.20
2022-11-23T06:37:54.668Z,0.20
2022-11-23T06:40:21.680Z,0.20
2022-11-23T06:42:48.570Z,0.40
2022-11-23T06:45:15.366Z,0.30
2022-11-23T06:47:42.252Z,0.30
2022-11-23T06:50:09.489Z,0.40
2022-11-23T06:52:36.363Z,0.77
2022-11-23T06:55:03.220Z,0.55
2022-11-23T06:57:30.046Z,0.30
2022-11-23T06:59:56.783Z,0.80
2022-11-23T07:02:23.560Z,0.82
2022-11-23T07:04:52.964Z,0.70
2022-11-23T07:07:19.933Z,0.90
2022-11-23T07:09:46.955Z,0.88
2022-11-23T07:12:13.817Z,0.98
2022-11-23T07:14:40.575Z,0.82
2022-11-23T07:17:07.447Z,0.50
2022-11-23T07:19:34.647Z,0.50
2022-11-23T07:22:02.692Z,0.68
2022-11-23T07:24:34.458Z,1.08
2022-11-23T07:27:04.764Z,0.80
2022-11-23T07:29:31.835Z,0.93
2022-11-23T07:31:59.046Z,0.98
2022-11-23T07:34:25.864Z,0.68
2022-11-23T07:36:53.810Z,1.00
2022-11-23T07:39:36.438Z,1.45
2022-11-23T07:42:31.943Z,1.40
2022-11-23T07:44:56.121Z,1.17
2022-11-23T07:47:22.935Z,1.30
2022-11-23T07:49:49.814Z,1.60
2022-11-23T07:52:16.591Z,1.30
2022-11-23T07:54:43.393Z,1.13
2022-11-23T07:57:10.196Z,1.38
2022-11-23T07:59:36.994Z,1.45
2022-11-23T08:02:03.748Z,1.30
2022-11-23T08:04:30.926Z,1.60
2022-11-23T08:06:57.915Z,1.10
2022-11-23T08:09:24.787Z,1.20
2022-11-23T08:11:51.601Z,1.20
2022-11-23T08:14:18.426Z,1.52
2022-11-23T08:16:49.403Z,1.30
2022-11-23T08:19:16.225Z,0.95
2022-11-23T08:21:43.292Z,1.65
2022-11-23T08:24:10.076Z,1.80
2022-11-23T08:26:37.125Z,1.70
2022-11-23T08:29:05.220Z,1.00
2022-11-23T08:31:33.260Z,1.08
2022-11-23T08:34:03.325Z,0.70
2022-11-23T08:36:30.632Z,0.70
2022-11-23T08:38:57.349Z,0.50
2022-11-23T08:41:24.599Z,0.40
2022-11-23T08:43:51.825Z,0.50
2022-11-23T08:46:19.486Z,0.40
2022-11-23T08:48:46.277Z,0.35
2022-11-23T08:51:13.275Z,0.40
2022-11-23T08:53:40.239Z,0.60
2022-11-23T08:56:08.296Z,0.50
2022-11-23T08:58:36.730Z,0.68
2022-11-23T09:01:11.761Z,0.50
2022-11-23T09:03:38.933Z,0.63
2022-11-23T09:06:05.915Z,0.60
2022-11-23T09:08:32.759Z,0.60
2022-11-23T09:11:04.139Z,0.40
2022-11-23T09:13:31.078Z,0.60
2022-11-23T09:16:01.676Z,0.52
2022-11-23T09:18:30.605Z,0.40
2022-11-23T09:20:58.158Z,0.65
2022-11-23T09:23:27.021Z,0.50
2022-11-23T09:25:53.934Z,0.50
2022-11-23T09:28:20.713Z,0.95
2022-11-23T09:30:48.152Z,0.77
2022-11-23T09:33:15.213Z,1.40
2022-11-23T09:35:43.986Z,0.60
2022-11-23T09:38:11.087Z,0.45
2022-11-23T09:40:40.417Z,0.40
2022-11-23T09:43:33.246Z,0.40
2022-11-23T09:46:25.808Z,0.60
2022-11-23T09:49:17.303Z,0.80
2022-11-23T09:51:44.695Z,0.80
2022-11-23T09:54:26.011Z,0.90
2022-11-23T09:57:01.249Z,0.80
2022-11-23T09:59:45.703Z,1.10
2022-11-23T10:02:21.975Z,1.10
2022-11-23T10:04:49.027Z,0.82
2022-11-23T10:07:32.001Z,0.60
2022-11-23T10:10:45.174Z,0.90
2022-11-23T10:13:33.742Z,0.80
2022-11-23T10:16:12.471Z,1.15
2022-11-23T10:18:44.994Z,0.60
2022-11-23T10:21:46.524Z,0.80
2022-11-23T10:24:22.218Z,0.80
2022-11-23T10:26:50.188Z,0.40
2022-11-23T10:29:20.621Z,0.65
2022-11-23T10:31:54.013Z,0.60
2022-11-23T10:35:00.572Z,0.88
2022-11-23T10:37:27.502Z,0.63
2022-11-23T10:39:54.332Z,0.85
2022-11-23T10:42:21.119Z,0.65
2022-11-23T10:44:50.316Z,0.70
2022-11-23T10:47:40.348Z,0.70
2022-11-23T10:50:37.461Z,0.70
2022-11-23T10:53:19.349Z,0.65
2022-11-23T10:55:55.206Z,0.52
2022-11-23T10:58:28.034Z,0.40
2022-11-23T11:01:05.699Z,0.77
2022-11-23T11:03:34.588Z,0.80
2022-11-23T11:06:10.708Z,0.82
2022-11-23T11:09:03.474Z,0.73
2022-11-23T11:11:39.578Z,0.50
2022-11-23T11:14:20.673Z,0.93
2022-11-23T11:16:56.068Z,0.60
2022-11-23T11:19:33.629Z,0.65
2022-11-23T11:22:24.415Z,0.55
2022-11-23T11:24:51.464Z,0.40
2022-11-23T11:27:23.052Z,0.65
2022-11-23T11:29:56.290Z,0.57
2022-11-23T11:32:36.889Z,0.60
2022-11-23T11:35:27.354Z,0.52
2022-11-23T11:38:02.601Z,0.50
2022-11-23T11:40:44.323Z,0.95
2022-11-23T11:43:39.488Z,0.57
2022-11-23T11:46:30.017Z,0.77
2022-11-23T11:49:05.727Z,0.70
2022-11-23T11:51:53.437Z,0.60
2022-11-23T11:54:32.024Z,1.05
2022-11-23T11:57:42.117Z,0.65
2022-11-23T12:00:17.166Z,0.70
2022-11-23T12:03:09.771Z,0.57
2022-11-23T12:05:49.177Z,0.60
2022-11-23T12:08:45.329Z,0.80
2022-11-23T12:11:13.290Z,0.80
2022-11-23T12:13:44.221Z,0.50
2022-11-23T12:16:29.964Z,0.50
2022-11-23T12:19:02.667Z,0.80
2022-11-23T12:21:55.758Z,0.50
2022-11-23T12:24:57.374Z,0.60
2022-11-23T12:27:24.322Z,0.80
2022-11-23T12:30:09.445Z,0.57
2022-11-23T12:33:10.207Z,0.60
2022-11-23T12:35:45.900Z,0.47
2022-11-23T12:38:31.034Z,0.60
2022-11-23T12:41:16.363Z,0.63
2022-11-23T12:44:09.564Z,0.60
2022-11-23T12:46:55.125Z,0.50
2022-11-23T12:49:39.327Z,0.70
2022-11-23T12:52:27.946Z,0.60
2022-11-23T12:55:01.474Z,0.82
2022-11-23T12:57:54.100Z,0.60
2022-11-23T13:00:22.600Z,0.57
2022-11-23T13:02:58.418Z,0.40
2022-11-23T13:05:50.232Z,0.80
2022-11-23T13:08:49.385Z,0.65
2022-11-23T13:11:51.065Z,0.80
2022-11-23T13:14:24.082Z,0.55
2022-11-23T13:17:25.410Z,0.60
2022-11-23T13:20:11.754Z,0.73
2022-11-23T13:22:44.121Z,0.40
2022-11-23T13:25:14.128Z,0.60
2022-11-23T13:27:44.087Z,0.73
2022-11-23T13:30:25.368Z,0.57
2022-11-23T13:33:00.575Z,0.43
2022-11-23T13:35:30.445Z,0.65
2022-11-23T13:37:57.139Z,0.52
2022-11-23T13:40:27.066Z,0.60
2022-11-23T13:43:03.888Z,0.50
2022-11-23T13:45:36.896Z,0.50
2022-11-23T13:48:13.273Z,0.50
2022-11-23T13:50:49.684Z,0.70
2022-11-23T13:53:36.416Z,0.50
2022-11-23T13:56:24.585Z,0.70
2022-11-23T13:59:14.521Z,0.60
2022-11-23T14:02:10.293Z,0.80
2022-11-23T14:04:42.547Z,0.50
2022-11-23T14:07:09.333Z,0.60
2022-11-23T14:09:45.148Z,0.73
2022-11-23T14:12:11.936Z,0.60
2022-11-23T14:14:44.804Z,0.70
2022-11-23T14:17:48.904Z,0.63
2022-11-23T14:20:41.109Z,0.75
2022-11-23T14:23:26.948Z,1.00
2022-11-23T14:26:27.765Z,0.68
2022-11-23T14:29:16.521Z,0.52
2022-11-23T14:32:07.782Z,0.47
2022-11-23T14:35:00.213Z,0.60
2022-11-23T14:37:58.075Z,0.55
2022-11-23T14:40:34.667Z,0.50
2022-11-23T14:43:02.944Z,0.40
2022-11-23T14:45:33.655Z,0.40
2022-11-23T14:48:21.382Z,0.50
2022-11-23T14:51:11.132Z,0.50
2022-11-23T14:53:50.095Z,0.40
2022-11-23T14:56:37.301Z,0.40
2022-11-23T14:59:43.452Z,0.52
2022-11-23T15:02:30.931Z,0.60
2022-11-23T15:05:21.005Z,0.70
2022-11-23T15:08:06.249Z,0.40
2022-11-23T15:10:57.129Z,0.35
2022-11-23T15:13:26.469Z,0.32
2022-11-23T15:15:55.657Z,0.40
2022-11-23T15:18:34.721Z,0.30
2022-11-23T15:21:06.915Z,0.32
2022-11-23T15:23:41.180Z,0.40
2022-11-23T15:26:41.771Z,0.30
2022-11-23T15:29:05.984Z,0.65
2022-11-23T15:31:37.049Z,0.40
2022-11-23T15:34:17.614Z,0.70
2022-11-23T15:36:46.152Z,0.50
2022-11-23T15:39:22.114Z,0.40
2022-11-23T15:41:49.997Z,1.15
2022-11-23T15:44:25.453Z,0.60
2022-11-23T15:46:55.459Z,0.50
2022-11-23T15:49:22.333Z,0.60
2022-11-23T15:51:49.529Z,0.50
2022-11-23T15:54:21.585Z,0.75
2022-11-23T15:56:51.036Z,0.50
2022-11-23T15:59:31.659Z,0.52
2022-11-23T16:02:01.699Z,0.45
2022-11-23T16:04:39.953Z,0.50
2022-11-23T16:07:24.454Z,0.52
2022-11-23T16:10:06.728Z,0.47
2022-11-23T16:12:45.423Z,0.50
2022-11-23T16:15:46.349Z,0.60
2022-11-23T16:18:25.305Z,0.50
2022-11-23T16:20:58.009Z,0.88
2022-11-23T16:23:28.666Z,1.00
2022-11-23T16:25:59.099Z,0.60
2022-11-23T16:28:31.390Z,0.45
2022-11-23T16:30:58.948Z,0.55
2022-11-23T16:33:26.303Z,1.13
2022-11-23T16:35:53.299Z,1.10
2022-11-23T16:38:21.055Z,1.27
2022-11-23T16:40:50.891Z,1.00
2022-11-23T16:43:18.162Z,0.80
2022-11-23T16:45:47.403Z,0.70
2022-11-23T16:48:26.156Z,0.40
2022-11-23T16:50:57.408Z,0.50
2022-11-23T16:53:30.187Z,0.55
2022-11-23T16:55:58.508Z,0.52
2022-11-23T16:58:29.009Z,0.70
2022-11-23T17:00:56.135Z,1.00
2022-11-23T17:03:24.099Z,0.88
2022-11-23T17:05:50.863Z,0.85
2022-11-23T17:08:23.413Z,0.73
2022-11-23T17:10:51.362Z,0.70
2022-11-23T17:13:23.930Z,0.73
2022-11-23T17:15:51.804Z,0.60
2022-11-23T17:18:19.138Z,0.80
2022-11-23T17:20:45.899Z,0.40
2022-11-23T17:23:12.792Z,0.47
2022-11-23T17:25:40.840Z,0.20
2022-11-23T17:28:15.473Z,0.40
2022-11-23T17:30:42.748Z,0.25
2022-11-23T17:33:11.979Z,0.25
2022-11-23T17:35:39.865Z,0.30
2022-11-23T17:38:12.183Z,0.30
2022-11-23T17:40:38.996Z,0.20
2022-11-23T17:43:05.777Z,0.20
2022-11-23T17:45:33.547Z,0.30
2022-11-23T17:48:03.355Z,0.20
2022-11-23T17:50:30.664Z,0.40
2022-11-23T17:52:57.517Z,0.30
2022-11-23T17:55:24.299Z,0.38
2022-11-23T17:57:51.660Z,0.35
2022-11-23T18:00:22.366Z,0.28
2022-11-23T18:02:49.689Z,0.30
2022-11-23T18:05:21.574Z,0.30
2022-11-23T18:07:50.637Z,0.25
2022-11-23T18:10:18.290Z,0.20
2022-11-23T18:12:45.993Z,0.43
2022-11-23T18:15:13.366Z,0.43
2022-11-23T18:17:40.766Z,0.40
2022-11-23T18:20:08.503Z,0.30
2022-11-23T18:22:35.571Z,0.40
2022-11-23T18:25:02.517Z,0.40
2022-11-23T18:27:29.943Z,0.30
2022-11-23T18:29:57.217Z,0.30
2022-11-23T18:32:24.076Z,0.50
2022-11-23T18:34:50.986Z,0.40
2022-11-23T18:37:17.893Z,0.28
2022-11-23T18:39:44.838Z,0.30
2022-11-23T18:42:11.688Z,0.50
2022-11-23T18:44:40.462Z,0.70
2022-11-23T18:47:07.240Z,0.50
2022-11-23T18:49:34.498Z,0.47
2022-11-23T18:52:01.510Z,0.60
2022-11-23T18:54:28.399Z,0.40
2022-11-23T18:56:55.215Z,0.60
2022-11-23T19:02:12.825Z,0.50
2022-11-23T19:04:39.867Z,0.82
2022-11-23T19:07:06.847Z,0.80
2022-11-23T19:09:34.862Z,0.60
2022-11-23T19:12:01.998Z,1.00
2022-11-23T19:14:28.917Z,0.80
2022-11-23T19:16:55.835Z,1.00
2022-11-23T19:19:22.656Z,1.02
2022-11-23T19:21:49.478Z,0.88
2022-11-23T19:24:16.348Z,0.70
2022-11-23T19:26:43.258Z,0.70
2022-11-23T19:29:10.278Z,0.60
2022-11-23T19:31:37.233Z,0.70
2022-11-23T19:34:06.151Z,1.00
2022-11-23T19:36:36.403Z,1.20
2022-11-23T19:39:05.498Z,1.00
2022-11-23T19:41:32.878Z,1.65
2022-11-23T19:44:02.939Z,1.40
2022-11-23T19:46:31.315Z,1.15
2022-11-23T19:48:58.920Z,1.17
2022-11-23T19:51:27.606Z,1.30
2022-11-23T19:53:57.097Z,1.17
2022-11-23T19:56:25.739Z,1.10
2022-11-23T19:59:00.732Z,1.10
2022-11-23T20:01:32.190Z,0.90
2022-11-23T20:04:07.899Z,0.88
2022-11-23T20:06:37.169Z,1.30
2022-11-23T20:09:09.358Z,1.10
2022-11-23T20:11:38.067Z,1.25
2022-11-23T20:14:06.607Z,0.90
2022-11-23T20:16:34.357Z,1.10
2022-11-23T20:19:04.074Z,0.85
2022-11-23T20:21:32.248Z,1.20
2022-11-23T20:24:05.182Z,0.88
2022-11-23T20:26:33.455Z,0.95
2022-11-23T20:29:00.292Z,0.88
2022-11-23T20:31:29.212Z,1.00
2022-11-23T20:33:57.009Z,0.93
2022-11-23T20:36:28.956Z,0.98
2022-11-23T20:38:56.120Z,1.00
2022-11-23T20:41:28.376Z,0.88
2022-11-23T20:44:06.899Z,0.93
2022-11-23T20:49:21.320Z,0.90
2022-11-23T20:51:48.134Z,0.70
2022-11-23T20:54:14.893Z,0.90
2022-11-23T20:56:41.661Z,0.98
2022-11-23T20:59:08.444Z,0.70
2022-11-23T21:01:35.343Z,1.02
2022-11-23T21:04:02.185Z,1.17
2022-11-23T21:06:28.984Z,0.70
2022-11-23T21:08:56.174Z,0.93
2022-11-23T21:11:43.355Z,0.63
2022-11-23T21:14:21.196Z,0.90
2022-11-23T21:16:56.205Z,0.80
2022-11-23T21:19:25.330Z,0.88
2022-11-23T21:21:52.909Z,0.80
2022-11-23T21:24:20.086Z,1.60
2022-11-23T21:26:47.578Z,2.33
2022-11-23T21:29:15.466Z,1.30
2022-11-23T21:31:44.951Z,2.38
2022-11-23T21:34:20.491Z,1.20
2022-11-23T21:36:48.181Z,2.08
2022-11-23T21:39:15.339Z,1.45
2022-11-23T21:41:42.781Z,1.85
2022-11-23T21:44:10.207Z,1.30
2022-11-23T21:46:40.626Z,1.25
2022-11-23T21:49:08.224Z,1.13
2022-11-23T21:51:36.140Z,1.40
2022-11-23T21:54:05.607Z,1.40
2022-11-23T21:56:33.179Z,1.40
2022-11-23T21:59:00.160Z,1.88
2022-11-23T22:01:32.487Z,1.70
2022-11-23T22:04:06.237Z,1.77
2022-11-23T22:06:32.953Z,1.75
2022-11-23T22:09:00.160Z,2.17
2022-11-23T22:11:30.964Z,1.92
2022-11-23T22:14:00.048Z,1.60
2022-11-23T22:16:28.229Z,1.88
2022-11-23T22:18:56.304Z,1.25
2022-11-23T22:21:28.558Z,1.40
2022-11-23T22:23:55.651Z,1.40
2022-11-23T22:26:22.593Z,1.08
2022-11-23T22:28:51.048Z,1.17
2022-11-23T22:31:25.530Z,1.65
2022-11-23T22:33:53.393Z,1.50
2022-11-23T22:36:22.564Z,1.90
2022-11-23T22:38:59.714Z,1.23
2022-11-23T22:41:29.064Z,1.70
2022-11-23T22:43:56.400Z,1.50
2022-11-23T22:46:24.613Z,1.40
2022-11-23T22:48:52.569Z,1.83
2022-11-23T22:51:21.855Z,1.23
2022-11-23T22:53:48.795Z,1.70
2022-11-23T22:56:19.962Z,2.22
2022-11-23T22:58:48.071Z,1.40
2022-11-23T23:01:17.591Z,1.88
2022-11-23T23:03:45.296Z,1.98
2022-11-23T23:06:17.650Z,2.03
2022-11-23T23:08:45.758Z,1.63
2022-11-23T23:11:14.328Z,1.52
2022-11-23T23:13:41.857Z,1.95
2022-11-23T23:16:12.187Z,1.58
2022-11-23T23:18:42.931Z,1.77
2022-11-23T23:21:15.038Z,1.85
2022-11-23T23:23:44.073Z,1.60
2022-11-23T23:26:12.324Z,1.40
2022-11-23T23:28:39.277Z,1.55
2022-11-23T23:31:11.468Z,1.45
2022-11-23T23:33:38.724Z,1.98
2022-11-23T23:36:06.612Z,1.45
2022-11-23T23:38:33.913Z,1.52
2022-11-23T23:41:01.273Z,1.85
2022-11-23T23:43:29.228Z,1.42
2022-11-23T23:46:00.415Z,1.60
2022-11-23T23:48:32.159Z,1.75
2022-11-23T23:51:04.161Z,1.83
2022-11-23T23:53:36.226Z,2.17
2022-11-23T23:56:06.056Z,1.60
2022-11-23T23:58:33.292Z,1.20
